Earlton, Canada
Current Conditions -  °F | °C
As of 11:00 AM on Thursday 23 Oct 2014 (Local Time) from CYXR Reporting Station
NA  
Wind Chill: 37°   Ceiling: NA
Heat Index: 37°   Visibility: 9mi
Dew Point: 34°   Wind: 2mph
Humidity: 87%   Direction: NA
Pressure: 30.23"   Gusts: NA
Location:  47.71°N, 79.82°W
Report Text: CYXR 231500Z AUTO VRB02KT 9SM 03/01 A3023 RMK CLD MISG WX MISG VIS MISG PCPN MISG SLP250
Loading
Personal Weather Stations






























Interactive Weather Map
Tropical Storm Tracking
New forecast layout! Learn more

10-Day Weather Forecast

Advertisements
Track Severe Weather on mobile